• Join FlightAware (Why Join?)
  • Login
  • US Flag 
03:30AM EDT


 

Airport Tracker/Info


-or-


 

Live Flight TrackerFlight Track Log ✈ N2116L ✈ 24-Jul-2013 ✈ KDKX - KMGY

Flight Track Log - Related Links

Times and Time Zones

All times are in EDT time to prevent confusion due to time zone crossing. See the N2116L flight status page for this flight to view local times or setup timezone preferences in your user account.

Time Position Orientation Groundspeed Altitude Reporting Facility
EDT Latitude Longitude Course Direction KTS MPH feet Rate Location/Type
06:07PM 36.0261 -83.8344 North 89 102 2,900  Level Indianapolis Center
06:08PM 36.0500 -83.8350 359° North 88 101 3,400 480 Climbing Indianapolis Center
06:09PM 36.0758 -83.8369 357° North 90 104 3,900 360 Climbing Indianapolis Center
06:10PM 36.1103 -83.8461 348° North 92 106 4,300 480 Climbing Atlanta Center
06:11PM 36.1378 -83.8442 North 114 131 4,900 540 Climbing Indianapolis Center
06:12PM 36.2096 -83.8833 North  Level FlightAware Approximate
06:12PM 36.1739 -83.8483 355° North 126 145 5,400  Level Indianapolis Center
06:13PM 36.2161 -83.8517 356° North 128 147 6,100 540 Climbing Indianapolis Center
06:14PM 36.2525 -83.8564 354° North 130 150 6,600 480 Climbing Indianapolis Center
06:15PM 36.2883 -83.8600 355° North 130 150 7,200 480 Climbing Indianapolis Center
06:16PM 36.3228 -83.8644 354° North 126 145 7,700 360 Climbing Indianapolis Center
06:17PM 36.3544 -83.8658 358° North 119 137 8,000 120 Climbing Indianapolis Center
06:18PM 36.3939 -83.8697 355° North 131 151 8,000  Level Indianapolis Center
06:19PM 36.4481 -83.8767 354° North 154 177 8,000  Level Indianapolis Center
06:20PM 36.4911 -83.8822 354° North 156 180 8,000  Level Indianapolis Center
06:21PM 36.5350 -83.8869 355° North 158 182 8,000  Level Indianapolis Center
06:22PM 36.5781 -83.8917 355° North 157 181 8,000  Level Indianapolis Center
06:23PM 36.6222 -83.8942 357° North 157 181 8,000  Level Indianapolis Center
06:24PM 36.6750 -83.9014 354° North 161 185 8,000  Level Indianapolis Center
06:25PM 36.7200 -83.9061 355° North 160 184 8,000  Level Indianapolis Center
06:26PM 36.7633 -83.9108 355° North 159 183 8,000  Level Indianapolis Center
06:27PM 36.8097 -83.9161 355° North 163 188 8,000  Level Indianapolis Center
06:29PM 36.8533 -83.9208 355° North 160 184 8,000  Level Indianapolis Center
06:30PM 36.9058 -83.9264 355° North 161 185 8,000  Level Indianapolis Center
06:31PM 36.9506 -83.9306 356° North 161 185 8,000  Level Indianapolis Center
06:32PM 36.9947 -83.9353 355° North 160 184 8,000  Level Indianapolis Center
06:33PM 37.0394 -83.9406 355° North 161 185 8,000  Level Indianapolis Center
06:34PM 37.0847 -83.9461 354° North 162 186 8,000  Level Indianapolis Center
06:35PM 37.1294 -83.9500 356° North 162 186 8,000  Level Indianapolis Center
06:36PM 37.1822 -83.9561 355° North 162 186 8,000  Level Indianapolis Center
06:37PM 37.2253 -83.9606 355° North 158 182 8,000  Level Indianapolis Center
06:38PM 37.2703 -83.9658 355° North 160 184 8,000  Level Indianapolis Center
06:39PM 37.3153 -83.9706 355° North 161 185 8,000  Level Indianapolis Center
06:40PM 37.3586 -83.9764 354° North 159 183 8,000  Level Indianapolis Center
06:41PM 37.4028 -83.9797 357° North 158 182 8,000  Level Indianapolis Center
06:42PM 37.4553 -83.9858 355° North 161 185 8,000  Level Indianapolis Center
06:43PM 37.4992 -83.9903 355° North 160 184 8,000  Level Indianapolis Center
06:44PM 37.5419 -83.9950 355° North 156 180 8,000  Level Indianapolis Center
06:45PM 37.5861 -84.0000 355° North 157 181 8,000  Level Indianapolis Center
06:46PM 37.6303 -84.0058 354° North 158 182 8,000  Level Indianapolis Center
06:47PM 37.6819 -84.0117 355° North 160 184 8,000  Level Indianapolis Center
06:48PM 37.7281 -84.0156 356° North 163 188 8,000  Level Indianapolis Center
06:49PM 37.7722 -84.0214 354° North 161 185 8,000  Level Indianapolis Center
06:50PM 37.8164 -84.0269 354° North 161 185 8,000  Level Indianapolis Center
06:51PM 37.8619 -84.0317 355° North 162 186 8,000  Level Indianapolis Center
06:52PM 37.9078 -84.0364 355° North 164 189 8,000  Level Indianapolis Center
06:53PM 37.9606 -84.0414 356° North 163 188 8,000  Level Indianapolis Center
06:54PM 38.0061 -84.0478 354° North 164 189 8,000  Level Indianapolis Center
06:55PM 38.0514 -84.0525 355° North 162 186 8,000  Level Indianapolis Center
06:56PM 38.0975 -84.0572 355° North 166 191 8,000  Level Indianapolis Center
06:57PM 38.1428 -84.0611 356° North 164 189 8,000 240 Level Indianapolis Center
06:58PM 38.1908 -84.0653 356° North 150 173 8,600 480 Climbing Indianapolis Center
07:00PM 38.2269 -84.0692 355° North 136 157 9,000 180 Climbing Indianapolis Center
07:01PM 38.2631 -84.0750 353° North 131 151 9,000  Level Indianapolis Center
07:02PM 38.3044 -84.0789 356° North 141 162 9,000  Level Indianapolis Center
07:03PM 38.3453 -84.0764 North 146 168 9,000 -60 Level Indianapolis Center
07:04PM 38.3869 -84.0764 360° North 148 170 8,900  Descending Indianapolis Center
07:05PM 38.4358 -84.0878 350° North 151 174 9,000  Climbing Indianapolis Center
07:06PM 38.4750 -84.0981 348° North 145 167 9,000  Level Indianapolis Center
07:07PM 38.5142 -84.1028 355° North 141 162 9,000 -60 Level Indianapolis Center
07:08PM 38.5553 -84.1081 354° North 147 169 8,900 -300 Descending Indianapolis Center
07:09PM 38.5994 -84.1125 356° North 156 180 8,400 -480 Descending Indianapolis Center
07:10PM 38.6483 -84.1189 354° North 164 189 8,000 -240 Descending Indianapolis Center
07:11PM 38.6917 -84.1242 355° North 158 182 8,000  Level Indianapolis Center
07:12PM 38.7319 -84.1269 357° North 146 168 8,000 -300 Level Indianapolis Center
07:13PM 38.7744 -84.1361 350° North 154 177 7,500 -540 Descending Indianapolis Center
07:14PM 38.8275 -84.1542 345° North 166 191 7,000 -540 Descending Indianapolis Center
07:15PM 38.8750 -84.1658 349° North 171 197 6,500 -540 Descending Indianapolis Center
07:16PM 38.9206 -84.1783 348° North 168 193 6,000 -480 Descending Indianapolis Center
07:17PM 38.9669 -84.1928 346° North 169 194 5,600 -480 Descending Indianapolis Center
07:18PM 39.0133 -84.2047 349° North 168 193 5,100 -300 Descending Indianapolis Center
07:19PM 39.0458 -84.2178 343° North 165 190 5,100  Level Indianapolis Center
07:20PM 39.0950 -84.2292 350° North 147 169 5,100  Level Indianapolis Center
07:21PM 39.1339 -84.2417 346° North 144 166 5,100  Level Indianapolis Center
07:22PM 39.1706 -84.2508 349° North 146 168 5,100  Level Indianapolis Center
07:23PM 39.2114 -84.2633 347° North 147 169 5,100  Level Indianapolis Center
07:24PM 39.2503 -84.2731 349° North 144 166 5,100  Level Indianapolis Center
07:25PM 39.3014 -84.2875 348° North 142 163 5,100  Level Indianapolis Center
07:26PM 39.3281 -84.2950 348° North 142 163 5,100  Level Indianapolis Center
07:27PM 39.3686 -84.3078 346° North 143 165 5,100 -360 Level Indianapolis Center
07:28PM 39.4192 -84.3181 351° North 141 162 4,300 -600 Descending Indianapolis Center
07:29PM 39.4450 -84.3025 25° Northeast 154 177 3,900 -540 Descending Indianapolis Center
07:31PM 39.4953 -84.2783 20° North 143 165 3,200 -480 Descending Indianapolis Center